sensor_id;sensor_type;location;lat;lon;timestamp;pressure;altitude;pressure_sealevel;temperature;humidity
70256;BME280;57669;52.624;-1.688;2022-10-04T00:02:23;101246.38;;;13.18;62.78
70256;BME280;57669;52.624;-1.688;2022-10-04T00:04:47;101249.88;;;13.12;63.54
70256;BME280;57669;52.624;-1.688;2022-10-04T00:07:17;101245.10;;;12.84;64.09
70256;BME280;57669;52.624;-1.688;2022-10-04T00:09:42;101244.61;;;13.64;61.71
70256;BME280;57669;52.624;-1.688;2022-10-04T00:12:03;101237.29;;;13.71;60.93
70256;BME280;57669;52.624;-1.688;2022-10-04T00:14:30;101231.35;;;13.28;61.85
70256;BME280;57669;52.624;-1.688;2022-10-04T00:16:53;101222.87;;;13.74;60.56
70256;BME280;57669;52.624;-1.688;2022-10-04T00:19:24;101221.77;;;12.90;62.10
70256;BME280;57669;52.624;-1.688;2022-10-04T00:24:18;101218.35;;;13.70;61.74
70256;BME280;57669;52.624;-1.688;2022-10-04T00:31:27;101204.34;;;13.30;61.39
70256;BME280;57669;52.624;-1.688;2022-10-04T00:33:55;101204.07;;;13.77;60.18
70256;BME280;57669;52.624;-1.688;2022-10-04T00:41:11;101199.36;;;13.41;60.92
70256;BME280;57669;52.624;-1.688;2022-10-04T00:43:38;101193.98;;;13.19;61.33
70256;BME280;57669;52.624;-1.688;2022-10-04T00:46:04;101189.46;;;13.68;60.77
70256;BME280;57669;52.624;-1.688;2022-10-04T00:48:32;101187.34;;;13.11;62.11
70256;BME280;57669;52.624;-1.688;2022-10-04T00:50:56;101175.58;;;13.48;61.29
70256;BME280;57669;52.624;-1.688;2022-10-04T00:53:34;101176.96;;;13.68;60.24
70256;BME280;57669;52.624;-1.688;2022-10-04T00:55:48;101169.09;;;13.66;60.20
70256;BME280;57669;52.624;-1.688;2022-10-04T00:58:16;101174.26;;;13.46;60.46
70256;BME280;57669;52.624;-1.688;2022-10-04T01:00:36;101163.91;;;14.05;59.54
70256;BME280;57669;52.624;-1.688;2022-10-04T01:03:05;101169.56;;;13.24;60.93
70256;BME280;57669;52.624;-1.688;2022-10-04T01:05:30;101166.34;;;13.04;61.71
70256;BME280;57669;52.624;-1.688;2022-10-04T01:07:56;101166.00;;;13.47;61.30
70256;BME280;57669;52.624;-1.688;2022-10-04T01:10:21;101156.77;;;13.48;60.13
70256;BME280;57669;52.624;-1.688;2022-10-04T01:12:49;101149.94;;;12.72;62.35
70256;BME280;57669;52.624;-1.688;2022-10-04T01:15:14;101153.56;;;12.77;62.09
70256;BME280;57669;52.624;-1.688;2022-10-04T01:17:35;101151.32;;;13.72;60.42
70256;BME280;57669;52.624;-1.688;2022-10-04T01:20:02;101149.42;;;13.12;61.39
70256;BME280;57669;52.624;-1.688;2022-10-04T01:22:35;101145.40;;;13.32;60.72
70256;BME280;57669;52.624;-1.688;2022-10-04T01:24:52;101141.36;;;13.20;60.87
70256;BME280;57669;52.624;-1.688;2022-10-04T01:29:43;101136.50;;;13.10;61.51
70256;BME280;57669;52.624;-1.688;2022-10-04T01:32:09;101134.18;;;12.63;62.65
70256;BME280;57669;52.624;-1.688;2022-10-04T01:34:37;101127.36;;;12.51;63.39
70256;BME280;57669;52.624;-1.688;2022-10-04T01:37:01;101115.94;;;12.19;63.55
70256;BME280;57669;52.624;-1.688;2022-10-04T01:39:27;101107.21;;;13.15;60.59
70256;BME280;57669;52.624;-1.688;2022-10-04T01:41:55;101099.70;;;12.97;60.84
70256;BME280;57669;52.624;-1.688;2022-10-04T01:44:25;101097.50;;;13.30;60.03
70256;BME280;57669;52.624;-1.688;2022-10-04T01:46:43;101091.74;;;12.80;61.70
70256;BME280;57669;52.624;-1.688;2022-10-04T01:49:11;101092.98;;;12.67;62.00
70256;BME280;57669;52.624;-1.688;2022-10-04T01:51:37;101086.36;;;12.83;61.75
70256;BME280;57669;52.624;-1.688;2022-10-04T01:54:03;101078.36;;;12.91;61.54
70256;BME280;57669;52.624;-1.688;2022-10-04T01:56:28;101069.63;;;12.91;61.34
70256;BME280;57669;52.624;-1.688;2022-10-04T01:58:54;101060.93;;;12.85;61.55
70256;BME280;57669;52.624;-1.688;2022-10-04T02:01:21;101050.99;;;13.22;60.66
70256;BME280;57669;52.624;-1.688;2022-10-04T02:03:47;101048.48;;;12.32;62.80
70256;BME280;57669;52.624;-1.688;2022-10-04T02:06:09;101050.92;;;12.50;62.94
70256;BME280;57669;52.624;-1.688;2022-10-04T02:08:38;101053.98;;;12.23;62.97
70256;BME280;57669;52.624;-1.688;2022-10-04T02:11:00;101047.64;;;12.40;62.52
70256;BME280;57669;52.624;-1.688;2022-10-04T02:13:27;101047.03;;;12.57;62.06
70256;BME280;57669;52.624;-1.688;2022-10-04T02:15:51;101036.93;;;12.51;62.13
70256;BME280;57669;52.624;-1.688;2022-10-04T02:18:19;101037.25;;;12.71;62.80
70256;BME280;57669;52.624;-1.688;2022-10-04T02:20:43;101037.15;;;12.99;60.40
70256;BME280;57669;52.624;-1.688;2022-10-04T02:23:09;101038.45;;;12.59;61.67
70256;BME280;57669;52.624;-1.688;2022-10-04T02:25:35;101037.29;;;13.31;59.95
70256;BME280;57669;52.624;-1.688;2022-10-04T02:28:00;101033.54;;;13.50;59.44
70256;BME280;57669;52.624;-1.688;2022-10-04T02:30:25;101032.13;;;12.67;60.63
70256;BME280;57669;52.624;-1.688;2022-10-04T02:32:53;101024.36;;;12.49;61.00
70256;BME280;57669;52.624;-1.688;2022-10-04T02:35:17;101022.18;;;13.69;59.25
70256;BME280;57669;52.624;-1.688;2022-10-04T02:37:43;101008.33;;;12.82;60.57
70256;BME280;57669;52.624;-1.688;2022-10-04T02:40:11;101008.66;;;12.79;60.18
70256;BME280;57669;52.624;-1.688;2022-10-04T02:42:39;101013.19;;;13.41;58.69
70256;BME280;57669;52.624;-1.688;2022-10-04T02:45:05;101011.05;;;13.08;59.55
70256;BME280;57669;52.624;-1.688;2022-10-04T02:47:29;101008.52;;;13.13;58.84
70256;BME280;57669;52.624;-1.688;2022-10-04T02:49:53;100995.28;;;13.24;58.45
70256;BME280;57669;52.624;-1.688;2022-10-04T02:52:21;100991.36;;;12.52;60.23
70256;BME280;57669;52.624;-1.688;2022-10-04T02:54:45;100994.10;;;12.83;59.85
70256;BME280;57669;52.624;-1.688;2022-10-04T02:57:14;100987.58;;;12.88;60.34
70256;BME280;57669;52.624;-1.688;2022-10-04T02:59:38;100987.61;;;12.83;59.86
70256;BME280;57669;52.624;-1.688;2022-10-04T03:02:01;100995.42;;;13.04;59.94
70256;BME280;57669;52.624;-1.688;2022-10-04T03:04:27;100996.12;;;12.31;61.19
70256;BME280;57669;52.624;-1.688;2022-10-04T03:06:52;100990.10;;;13.08;59.24
70256;BME280;57669;52.624;-1.688;2022-10-04T03:09:19;100994.45;;;13.09;59.08
70256;BME280;57669;52.624;-1.688;2022-10-04T03:11:43;100994.00;;;13.12;58.37
70256;BME280;57669;52.624;-1.688;2022-10-04T03:14:12;100994.27;;;13.57;57.35
70256;BME280;57669;52.624;-1.688;2022-10-04T03:16:37;100991.05;;;12.76;59.18
70256;BME280;57669;52.624;-1.688;2022-10-04T03:18:59;100990.62;;;13.45;57.20
70256;BME280;57669;52.624;-1.688;2022-10-04T03:21:25;100989.39;;;13.21;57.14
70256;BME280;57669;52.624;-1.688;2022-10-04T03:23:51;100985.59;;;13.39;57.22
70256;BME280;57669;52.624;-1.688;2022-10-04T03:26:24;100975.95;;;13.31;57.38
70256;BME280;57669;52.624;-1.688;2022-10-04T03:28:42;100978.41;;;12.51;59.90
70256;BME280;57669;52.624;-1.688;2022-10-04T03:31:09;100974.73;;;13.11;58.57
70256;BME280;57669;52.624;-1.688;2022-10-04T03:33:34;100975.65;;;13.56;58.06
70256;BME280;57669;52.624;-1.688;2022-10-04T03:36:00;100974.50;;;13.10;58.45
70256;BME280;57669;52.624;-1.688;2022-10-04T03:38:26;100976.43;;;12.75;58.86
70256;BME280;57669;52.624;-1.688;2022-10-04T03:40:54;100971.84;;;12.85;60.16
70256;BME280;57669;52.624;-1.688;2022-10-04T03:43:16;100972.76;;;12.91;60.15
70256;BME280;57669;52.624;-1.688;2022-10-04T03:45:42;100970.31;;;12.08;62.15
70256;BME280;57669;52.624;-1.688;2022-10-04T03:48:12;100969.93;;;12.63;61.19
70256;BME280;57669;52.624;-1.688;2022-10-04T03:50:37;100966.35;;;12.37;62.47
70256;BME280;57669;52.624;-1.688;2022-10-04T03:53:04;100963.94;;;13.09;60.85
70256;BME280;57669;52.624;-1.688;2022-10-04T03:55:30;100953.77;;;12.01;62.68
70256;BME280;57669;52.624;-1.688;2022-10-04T03:57:50;100941.83;;;12.41;61.68
70256;BME280;57669;52.624;-1.688;2022-10-04T04:00:17;100939.39;;;12.54;61.42
70256;BME280;57669;52.624;-1.688;2022-10-04T04:02:44;100931.11;;;12.81;62.16
70256;BME280;57669;52.624;-1.688;2022-10-04T04:05:10;100928.54;;;12.49;62.88
70256;BME280;57669;52.624;-1.688;2022-10-04T04:07:37;100920.44;;;12.34;63.20
70256;BME280;57669;52.624;-1.688;2022-10-04T04:10:02;100922.12;;;10.83;66.90
70256;BME280;57669;52.624;-1.688;2022-10-04T04:12:30;100923.73;;;10.97;67.30
70256;BME280;57669;52.624;-1.688;2022-10-04T04:14:51;100920.17;;;11.76;64.73
70256;BME280;57669;52.624;-1.688;2022-10-04T04:19:42;100932.88;;;11.89;64.25
70256;BME280;57669;52.624;-1.688;2022-10-04T04:22:10;100937.65;;;12.14;63.65
70256;BME280;57669;52.624;-1.688;2022-10-04T04:24:35;100941.82;;;11.42;65.43
70256;BME280;57669;52.624;-1.688;2022-10-04T04:27:00;100939.94;;;11.82;63.26
70256;BME280;57669;52.624;-1.688;2022-10-04T04:29:30;100935.62;;;11.82;64.47
70256;BME280;57669;52.624;-1.688;2022-10-04T04:31:52;100939.13;;;11.87;63.15
70256;BME280;57669;52.624;-1.688;2022-10-04T04:34:19;100937.60;;;12.06;63.74
70256;BME280;57669;52.624;-1.688;2022-10-04T04:36:41;100934.24;;;12.28;63.24
70256;BME280;57669;52.624;-1.688;2022-10-04T04:39:11;100931.81;;;12.31;63.34
70256;BME280;57669;52.624;-1.688;2022-10-04T04:41:33;100936.89;;;12.38;61.90
70256;BME280;57669;52.624;-1.688;2022-10-04T04:43:59;100937.28;;;12.13;63.46
70256;BME280;57669;52.624;-1.688;2022-10-04T04:46:24;100934.98;;;11.98;62.68
70256;BME280;57669;52.624;-1.688;2022-10-04T04:48:56;100936.71;;;12.56;61.38
70256;BME280;57669;52.624;-1.688;2022-10-04T04:51:21;100934.24;;;12.82;60.14
70256;BME280;57669;52.624;-1.688;2022-10-04T04:53:42;100932.36;;;13.40;59.33
70256;BME280;57669;52.624;-1.688;2022-10-04T04:56:09;100927.72;;;13.57;58.92
70256;BME280;57669;52.624;-1.688;2022-10-04T04:58:36;100919.76;;;13.07;59.87
70256;BME280;57669;52.624;-1.688;2022-10-04T05:01:00;100918.86;;;12.83;60.59
70256;BME280;57669;52.624;-1.688;2022-10-04T05:03:24;100918.18;;;12.28;61.74
70256;BME280;57669;52.624;-1.688;2022-10-04T05:05:51;100911.15;;;12.10;63.47
70256;BME280;57669;52.624;-1.688;2022-10-04T05:08:19;100908.42;;;12.34;62.80
70256;BME280;57669;52.624;-1.688;2022-10-04T05:10:44;100905.17;;;12.40;62.51
70256;BME280;57669;52.624;-1.688;2022-10-04T05:13:09;100906.78;;;12.37;62.12
70256;BME280;57669;52.624;-1.688;2022-10-04T05:15:34;100912.34;;;11.97;63.54
70256;BME280;57669;52.624;-1.688;2022-10-04T05:17:59;100916.73;;;11.79;64.15
70256;BME280;57669;52.624;-1.688;2022-10-04T05:20:25;100910.50;;;12.16;62.72
70256;BME280;57669;52.624;-1.688;2022-10-04T05:22:51;100908.03;;;12.06;62.34
70256;BME280;57669;52.624;-1.688;2022-10-04T05:25:25;100905.30;;;12.60;62.19
70256;BME280;57669;52.624;-1.688;2022-10-04T05:27:42;100910.47;;;12.52;61.70
70256;BME280;57669;52.624;-1.688;2022-10-04T05:30:13;100909.97;;;11.97;63.37
70256;BME280;57669;52.624;-1.688;2022-10-04T05:32:42;100907.76;;;12.20;62.94
70256;BME280;57669;52.624;-1.688;2022-10-04T05:35:00;100906.37;;;12.21;62.89
70256;BME280;57669;52.624;-1.688;2022-10-04T05:37:33;100901.64;;;12.06;63.28
70256;BME280;57669;52.624;-1.688;2022-10-04T05:40:02;100897.23;;;12.06;63.19
70256;BME280;57669;52.624;-1.688;2022-10-04T05:42:20;100897.87;;;12.21;63.28
70256;BME280;57669;52.624;-1.688;2022-10-04T05:44:49;100896.21;;;11.74;63.71
70256;BME280;57669;52.624;-1.688;2022-10-04T05:47:11;100897.93;;;12.15;62.78
70256;BME280;57669;52.624;-1.688;2022-10-04T05:52:02;100898.28;;;12.16;62.55
70256;BME280;57669;52.624;-1.688;2022-10-04T05:54:26;100894.66;;;12.41;61.52
70256;BME280;57669;52.624;-1.688;2022-10-04T05:59:29;100889.87;;;12.50;61.58
70256;BME280;57669;52.624;-1.688;2022-10-04T06:01:47;100884.74;;;11.92;63.00
70256;BME280;57669;52.624;-1.688;2022-10-04T06:04:19;100881.22;;;12.59;61.33
70256;BME280;57669;52.624;-1.688;2022-10-04T06:06:39;100889.17;;;12.25;61.62
70256;BME280;57669;52.624;-1.688;2022-10-04T06:09:07;100896.77;;;12.89;60.77
70256;BME280;57669;52.624;-1.688;2022-10-04T06:11:36;100888.86;;;12.39;61.78
70256;BME280;57669;52.624;-1.688;2022-10-04T06:16:23;100888.43;;;12.62;60.55
70256;BME280;57669;52.624;-1.688;2022-10-04T06:19:00;100882.81;;;12.11;61.85
70256;BME280;57669;52.624;-1.688;2022-10-04T06:21:16;100884.62;;;12.24;62.05
70256;BME280;57669;52.624;-1.688;2022-10-04T06:23:40;100890.78;;;12.50;61.05
70256;BME280;57669;52.624;-1.688;2022-10-04T06:26:03;100886.80;;;11.94;61.42
70256;BME280;57669;52.624;-1.688;2022-10-04T06:28:29;100886.76;;;12.58;60.18
70256;BME280;57669;52.624;-1.688;2022-10-04T06:33:25;100889.61;;;12.91;60.43
70256;BME280;57669;52.624;-1.688;2022-10-04T06:35:53;100888.85;;;12.74;59.84
70256;BME280;57669;52.624;-1.688;2022-10-04T06:38:21;100896.46;;;12.45;61.22
70256;BME280;57669;52.624;-1.688;2022-10-04T06:40:45;100877.67;;;12.41;61.64
70256;BME280;57669;52.624;-1.688;2022-10-04T06:43:11;100869.98;;;12.28;61.77
70256;BME280;57669;52.624;-1.688;2022-10-04T06:45:39;100874.91;;;12.63;61.22
70256;BME280;57669;52.624;-1.688;2022-10-04T06:48:06;100875.49;;;12.40;60.64
70256;BME280;57669;52.624;-1.688;2022-10-04T06:50:24;100871.70;;;12.79;59.78
70256;BME280;57669;52.624;-1.688;2022-10-04T06:52:53;100869.37;;;12.41;60.71
70256;BME280;57669;52.624;-1.688;2022-10-04T06:55:19;100867.27;;;12.06;62.61
70256;BME280;57669;52.624;-1.688;2022-10-04T06:57:48;100869.77;;;12.32;62.25
70256;BME280;57669;52.624;-1.688;2022-10-04T07:00:07;100863.47;;;12.18;62.65
70256;BME280;57669;52.624;-1.688;2022-10-04T07:02:28;100864.30;;;12.38;62.33
70256;BME280;57669;52.624;-1.688;2022-10-04T07:07:22;100866.61;;;12.08;63.02
70256;BME280;57669;52.624;-1.688;2022-10-04T07:09:42;100868.56;;;12.49;62.44
70256;BME280;57669;52.624;-1.688;2022-10-04T07:12:11;100864.90;;;12.27;62.81
70256;BME280;57669;52.624;-1.688;2022-10-04T07:14:36;100866.69;;;12.63;62.00
70256;BME280;57669;52.624;-1.688;2022-10-04T07:17:02;100861.30;;;12.55;62.38
70256;BME280;57669;52.624;-1.688;2022-10-04T07:19:32;100865.49;;;12.89;60.45
70256;BME280;57669;52.624;-1.688;2022-10-04T07:21:56;100867.65;;;12.07;63.43
70256;BME280;57669;52.624;-1.688;2022-10-04T07:24:22;100873.74;;;12.75;62.03
70256;BME280;57669;52.624;-1.688;2022-10-04T07:26:45;100859.74;;;12.38;63.16
70256;BME280;57669;52.624;-1.688;2022-10-04T07:29:14;100851.52;;;12.12;63.97
70256;BME280;57669;52.624;-1.688;2022-10-04T07:31:34;100861.26;;;12.16;64.63
70256;BME280;57669;52.624;-1.688;2022-10-04T07:34:01;100850.08;;;12.03;64.36
70256;BME280;57669;52.624;-1.688;2022-10-04T07:36:28;100852.55;;;11.56;65.27
70256;BME280;57669;52.624;-1.688;2022-10-04T07:38:54;100858.93;;;12.10;64.06
70256;BME280;57669;52.624;-1.688;2022-10-04T07:41:21;100857.42;;;11.77;64.87
70256;BME280;57669;52.624;-1.688;2022-10-04T07:43:47;100859.07;;;11.89;64.51
70256;BME280;57669;52.624;-1.688;2022-10-04T07:46:13;100858.04;;;11.82;65.19
70256;BME280;57669;52.624;-1.688;2022-10-04T07:48:39;100859.23;;;12.49;62.42
70256;BME280;57669;52.624;-1.688;2022-10-04T07:51:06;100868.14;;;12.52;62.31
70256;BME280;57669;52.624;-1.688;2022-10-04T07:55:55;100867.08;;;12.19;63.33
70256;BME280;57669;52.624;-1.688;2022-10-04T07:58:25;100874.39;;;12.80;61.91
70256;BME280;57669;52.624;-1.688;2022-10-04T08:00:49;100862.04;;;12.06;63.37
70256;BME280;57669;52.624;-1.688;2022-10-04T08:03:19;100866.10;;;11.40;65.35
70256;BME280;57669;52.624;-1.688;2022-10-04T08:05:36;100866.78;;;12.47;63.12
70256;BME280;57669;52.624;-1.688;2022-10-04T08:08:12;100869.58;;;12.59;61.81
70256;BME280;57669;52.624;-1.688;2022-10-04T08:10:28;100870.80;;;12.68;62.12
70256;BME280;57669;52.624;-1.688;2022-10-04T08:12:56;100876.72;;;13.19;60.27
70256;BME280;57669;52.624;-1.688;2022-10-04T08:15:27;100874.53;;;13.05;60.67
70256;BME280;57669;52.624;-1.688;2022-10-04T08:17:51;100864.33;;;12.17;63.03
70256;BME280;57669;52.624;-1.688;2022-10-04T08:20:21;100873.15;;;12.72;61.86
70256;BME280;57669;52.624;-1.688;2022-10-04T08:22:46;100864.24;;;12.07;63.65
70256;BME280;57669;52.624;-1.688;2022-10-04T08:25:05;100862.78;;;12.36;63.12
70256;BME280;57669;52.624;-1.688;2022-10-04T08:27:35;100860.35;;;12.12;63.77
70256;BME280;57669;52.624;-1.688;2022-10-04T08:30:03;100865.61;;;12.68;62.28
70256;BME280;57669;52.624;-1.688;2022-10-04T08:32:26;100865.43;;;13.43;60.68
70256;BME280;57669;52.624;-1.688;2022-10-04T08:34:53;100861.21;;;12.60;62.05
70256;BME280;57669;52.624;-1.688;2022-10-04T08:37:16;100859.66;;;12.11;62.49
70256;BME280;57669;52.624;-1.688;2022-10-04T08:39:48;100852.09;;;13.06;61.22
70256;BME280;57669;52.624;-1.688;2022-10-04T08:42:17;100841.79;;;12.91;61.92
70256;BME280;57669;52.624;-1.688;2022-10-04T08:47:00;100824.29;;;12.79;62.45
70256;BME280;57669;52.624;-1.688;2022-10-04T08:49:32;100826.27;;;12.84;61.08
70256;BME280;57669;52.624;-1.688;2022-10-04T08:56:48;100836.01;;;13.62;59.27
70256;BME280;57669;52.624;-1.688;2022-10-04T08:59:18;100840.17;;;12.77;60.94
70256;BME280;57669;52.624;-1.688;2022-10-04T09:06:30;100856.33;;;13.36;59.42
70256;BME280;57669;52.624;-1.688;2022-10-04T09:11:22;100832.98;;;13.81;58.53
70256;BME280;57669;52.624;-1.688;2022-10-04T09:13:42;100836.23;;;13.54;59.34
70256;BME280;57669;52.624;-1.688;2022-10-04T09:16:14;100839.36;;;13.33;60.01
70256;BME280;57669;52.624;-1.688;2022-10-04T09:18:43;100835.13;;;13.72;58.28
70256;BME280;57669;52.624;-1.688;2022-10-04T09:20:55;100832.00;;;13.52;58.51
70256;BME280;57669;52.624;-1.688;2022-10-04T09:25:48;100823.57;;;14.61;56.64
70256;BME280;57669;52.624;-1.688;2022-10-04T09:30:45;100822.11;;;13.91;57.53
70256;BME280;57669;52.624;-1.688;2022-10-04T09:33:16;100819.42;;;14.41;57.18
70256;BME280;57669;52.624;-1.688;2022-10-04T09:35:35;100819.08;;;13.95;57.22
70256;BME280;57669;52.624;-1.688;2022-10-04T09:38:00;100817.18;;;14.70;56.13
70256;BME280;57669;52.624;-1.688;2022-10-04T09:42:56;100824.18;;;14.52;57.28
70256;BME280;57669;52.624;-1.688;2022-10-04T09:45:22;100825.09;;;13.69;58.65
70256;BME280;57669;52.624;-1.688;2022-10-04T09:47:42;100829.63;;;14.08;57.92
70256;BME280;57669;52.624;-1.688;2022-10-04T09:50:15;100826.52;;;13.75;58.88
70256;BME280;57669;52.624;-1.688;2022-10-04T09:52:36;100826.23;;;13.87;59.15
70256;BME280;57669;52.624;-1.688;2022-10-04T09:55:00;100814.10;;;13.92;58.90
70256;BME280;57669;52.624;-1.688;2022-10-04T09:57:22;100818.53;;;13.92;58.62
70256;BME280;57669;52.624;-1.688;2022-10-04T09:59:54;100815.88;;;13.96;57.53
70256;BME280;57669;52.624;-1.688;2022-10-04T10:04:41;100807.63;;;14.61;56.60
70256;BME280;57669;52.624;-1.688;2022-10-04T10:07:11;100797.41;;;14.21;57.32
70256;BME280;57669;52.624;-1.688;2022-10-04T10:09:30;100801.54;;;14.60;56.80
70256;BME280;57669;52.624;-1.688;2022-10-04T10:11:56;100796.24;;;14.31;57.15
70256;BME280;57669;52.624;-1.688;2022-10-04T10:16:52;100796.09;;;14.12;58.04
70256;BME280;57669;52.624;-1.688;2022-10-04T10:21:45;100794.59;;;14.04;57.30
70256;BME280;57669;52.624;-1.688;2022-10-04T10:26:35;100805.99;;;13.74;58.37
70256;BME280;57669;52.624;-1.688;2022-10-04T10:29:01;100806.63;;;14.55;56.68
70256;BME280;57669;52.624;-1.688;2022-10-04T10:31:30;100813.02;;;14.43;57.16
70256;BME280;57669;52.624;-1.688;2022-10-04T10:38:42;100789.64;;;14.42;56.67
70256;BME280;57669;52.624;-1.688;2022-10-04T10:43:33;100783.19;;;14.03;57.43
70256;BME280;57669;52.624;-1.688;2022-10-04T10:48:22;100794.37;;;14.37;57.14
70256;BME280;57669;52.624;-1.688;2022-10-04T10:50:50;100791.02;;;13.82;58.40
70256;BME280;57669;52.624;-1.688;2022-10-04T10:53:25;100789.52;;;13.70;59.06
70256;BME280;57669;52.624;-1.688;2022-10-04T11:00:32;100802.78;;;14.41;56.78
70256;BME280;57669;52.624;-1.688;2022-10-04T11:03:06;100795.53;;;14.69;56.17
70256;BME280;57669;52.624;-1.688;2022-10-04T11:05:24;100791.59;;;15.05;55.85
70256;BME280;57669;52.624;-1.688;2022-10-04T11:07:46;100790.68;;;15.02;55.45
70256;BME280;57669;52.624;-1.688;2022-10-04T11:12:43;100773.14;;;14.22;56.71
70256;BME280;57669;52.624;-1.688;2022-10-04T11:15:08;100777.77;;;14.52;56.17
70256;BME280;57669;52.624;-1.688;2022-10-04T11:17:33;100778.70;;;14.88;55.64
70256;BME280;57669;52.624;-1.688;2022-10-04T11:20:00;100792.80;;;14.25;56.88
70256;BME280;57669;52.624;-1.688;2022-10-04T11:22:28;100788.42;;;14.48;56.97
70256;BME280;57669;52.624;-1.688;2022-10-04T11:29:46;100780.21;;;14.60;55.89
70256;BME280;57669;52.624;-1.688;2022-10-04T11:32:09;100777.07;;;14.62;55.89
70256;BME280;57669;52.624;-1.688;2022-10-04T11:37:01;100761.95;;;14.28;57.52
70256;BME280;57669;52.624;-1.688;2022-10-04T11:39:23;100746.05;;;14.80;56.35
70256;BME280;57669;52.624;-1.688;2022-10-04T11:41:48;100738.55;;;14.71;56.51
70256;BME280;57669;52.624;-1.688;2022-10-04T11:44:21;100747.04;;;15.03;54.77
70256;BME280;57669;52.624;-1.688;2022-10-04T11:46:37;100749.67;;;14.74;56.24
70256;BME280;57669;52.624;-1.688;2022-10-04T11:49:06;100747.62;;;14.55;55.92
70256;BME280;57669;52.624;-1.688;2022-10-04T11:56:20;100747.39;;;14.90;56.06
70256;BME280;57669;52.624;-1.688;2022-10-04T11:58:51;100744.32;;;14.67;57.14
70256;BME280;57669;52.624;-1.688;2022-10-04T12:03:45;100734.06;;;14.83;57.31
70256;BME280;57669;52.624;-1.688;2022-10-04T12:06:13;100741.76;;;14.21;58.39
70256;BME280;57669;52.624;-1.688;2022-10-04T12:08:31;100736.29;;;14.97;56.44
70256;BME280;57669;52.624;-1.688;2022-10-04T12:15:46;100737.81;;;14.92;55.90
70256;BME280;57669;52.624;-1.688;2022-10-04T12:18:19;100733.45;;;14.82;55.97
70256;BME280;57669;52.624;-1.688;2022-10-04T12:23:10;100735.51;;;15.43;54.86
70256;BME280;57669;52.624;-1.688;2022-10-04T12:27:59;100727.82;;;15.56;54.52
70256;BME280;57669;52.624;-1.688;2022-10-04T12:30:19;100725.79;;;15.30;54.32
70256;BME280;57669;52.624;-1.688;2022-10-04T12:32:44;100724.50;;;15.82;54.19
70256;BME280;57669;52.624;-1.688;2022-10-04T12:35:14;100734.32;;;15.22;55.59
70256;BME280;57669;52.624;-1.688;2022-10-04T12:37:34;100732.58;;;15.39;54.52
70256;BME280;57669;52.624;-1.688;2022-10-04T12:42:30;100742.92;;;16.00;52.99
70256;BME280;57669;52.624;-1.688;2022-10-04T12:44:57;100742.62;;;15.55;54.24
70256;BME280;57669;52.624;-1.688;2022-10-04T12:49:45;100748.79;;;15.41;54.02
70256;BME280;57669;52.624;-1.688;2022-10-04T12:52:10;100733.35;;;14.97;55.29
70256;BME280;57669;52.624;-1.688;2022-10-04T12:54:37;100724.36;;;14.93;56.43
70256;BME280;57669;52.624;-1.688;2022-10-04T12:57:04;100717.99;;;15.19;54.84
70256;BME280;57669;52.624;-1.688;2022-10-04T12:59:32;100712.80;;;15.64;54.77
70256;BME280;57669;52.624;-1.688;2022-10-04T13:01:54;100712.78;;;15.20;55.65
70256;BME280;57669;52.624;-1.688;2022-10-04T13:04:20;100718.60;;;14.87;55.07
70256;BME280;57669;52.624;-1.688;2022-10-04T13:06:47;100723.20;;;14.65;56.60
70256;BME280;57669;52.624;-1.688;2022-10-04T13:09:10;100739.17;;;15.26;55.41
70256;BME280;57669;52.624;-1.688;2022-10-04T13:11:42;100730.65;;;15.02;56.05
70256;BME280;57669;52.624;-1.688;2022-10-04T13:14:07;100729.12;;;14.64;57.14
70256;BME280;57669;52.624;-1.688;2022-10-04T13:16:32;100718.84;;;14.49;57.99
70256;BME280;57669;52.624;-1.688;2022-10-04T13:18:54;100721.19;;;14.34;57.56
70256;BME280;57669;52.624;-1.688;2022-10-04T13:21:19;100715.42;;;14.85;56.65
70256;BME280;57669;52.624;-1.688;2022-10-04T13:23:49;100708.85;;;15.42;55.45
70256;BME280;57669;52.624;-1.688;2022-10-04T13:26:15;100714.28;;;15.60;55.06
70256;BME280;57669;52.624;-1.688;2022-10-04T13:28:33;100714.22;;;15.28;56.06
70256;BME280;57669;52.624;-1.688;2022-10-04T13:30:59;100708.35;;;15.11;56.26
70256;BME280;57669;52.624;-1.688;2022-10-04T13:33:26;100701.20;;;15.04;55.89
70256;BME280;57669;52.624;-1.688;2022-10-04T13:35:52;100690.54;;;14.77;56.99
70256;BME280;57669;52.624;-1.688;2022-10-04T13:40:48;100685.52;;;15.40;55.44
70256;BME280;57669;52.624;-1.688;2022-10-04T13:43:18;100682.38;;;15.62;55.52
70256;BME280;57669;52.624;-1.688;2022-10-04T13:45:39;100682.75;;;15.53;55.75
70256;BME280;57669;52.624;-1.688;2022-10-04T13:48:06;100675.47;;;15.21;55.76
70256;BME280;57669;52.624;-1.688;2022-10-04T13:52:50;100670.02;;;15.10;56.33
70256;BME280;57669;52.624;-1.688;2022-10-04T13:55:22;100667.33;;;14.90;56.69
70256;BME280;57669;52.624;-1.688;2022-10-04T13:57:41;100674.10;;;15.22;56.18
70256;BME280;57669;52.624;-1.688;2022-10-04T14:00:05;100674.40;;;15.43;55.73
70256;BME280;57669;52.624;-1.688;2022-10-04T14:09:54;100708.35;;;15.71;55.87
70256;BME280;57669;52.624;-1.688;2022-10-04T14:12:30;100706.96;;;15.12;56.49
70256;BME280;57669;52.624;-1.688;2022-10-04T14:14:55;100709.82;;;15.32;55.40
70256;BME280;57669;52.624;-1.688;2022-10-04T14:22:06;100699.87;;;15.50;54.63
70256;BME280;57669;52.624;-1.688;2022-10-04T14:31:45;100690.30;;;15.18;56.55
70256;BME280;57669;52.624;-1.688;2022-10-04T14:36:41;100690.62;;;15.48;55.93
70256;BME280;57669;52.624;-1.688;2022-10-04T14:39:07;100682.89;;;15.48;56.39
70256;BME280;57669;52.624;-1.688;2022-10-04T14:41:29;100691.02;;;15.16;55.69
70256;BME280;57669;52.624;-1.688;2022-10-04T14:43:57;100693.56;;;14.87;57.23
70256;BME280;57669;52.624;-1.688;2022-10-04T14:46:18;100699.49;;;14.82;57.57
70256;BME280;57669;52.624;-1.688;2022-10-04T14:48:47;100698.24;;;15.11;56.82